sensor_id;sensor_type;location;lat;lon;timestamp;pressure;altitude;pressure_sealevel;temperature;humidity
29935;BME280;19905;53.370;-6.314;2023-04-06T00:00:23;100935.16;;;9.29;100.00
29935;BME280;19905;53.370;-6.314;2023-04-06T00:02:52;100931.69;;;9.29;100.00
29935;BME280;19905;53.370;-6.314;2023-04-06T00:05:21;100926.63;;;9.26;100.00
29935;BME280;19905;53.370;-6.314;2023-04-06T00:07:50;100928.72;;;9.21;100.00
29935;BME280;19905;53.370;-6.314;2023-04-06T00:10:20;100936.09;;;9.15;100.00
29935;BME280;19905;53.370;-6.314;2023-04-06T00:12:48;100922.19;;;9.13;100.00
29935;BME280;19905;53.370;-6.314;2023-04-06T00:15:17;100926.06;;;9.08;100.00
29935;BME280;19905;53.370;-6.314;2023-04-06T00:17:47;100925.75;;;9.00;100.00
29935;BME280;19905;53.370;-6.314;2023-04-06T00:20:16;100923.59;;;8.92;100.00
29935;BME280;19905;53.370;-6.314;2023-04-06T00:22:45;100923.81;;;8.89;100.00
29935;BME280;19905;53.370;-6.314;2023-04-06T00:25:15;100908.41;;;8.83;100.00
29935;BME280;19905;53.370;-6.314;2023-04-06T00:27:43;100912.72;;;8.84;100.00
29935;BME280;19905;53.370;-6.314;2023-04-06T00:30:12;100902.00;;;8.87;100.00
29935;BME280;19905;53.370;-6.314;2023-04-06T00:32:41;100899.34;;;8.87;100.00
29935;BME280;19905;53.370;-6.314;2023-04-06T00:35:11;100902.63;;;8.90;100.00
29935;BME280;19905;53.370;-6.314;2023-04-06T00:37:41;100903.28;;;8.94;100.00
29935;BME280;19905;53.370;-6.314;2023-04-06T00:40:10;100891.91;;;8.94;100.00
29935;BME280;19905;53.370;-6.314;2023-04-06T00:42:39;100898.09;;;8.93;100.00
29935;BME280;19905;53.370;-6.314;2023-04-06T00:45:09;100913.38;;;8.87;100.00
29935;BME280;19905;53.370;-6.314;2023-04-06T00:47:38;100909.66;;;8.77;100.00
29935;BME280;19905;53.370;-6.314;2023-04-06T00:50:11;100909.00;;;8.74;100.00
29935;BME280;19905;53.370;-6.314;2023-04-06T00:52:39;100906.66;;;8.69;100.00
29935;BME280;19905;53.370;-6.314;2023-04-06T00:55:09;100908.88;;;8.62;100.00
29935;BME280;19905;53.370;-6.314;2023-04-06T00:57:37;100908.34;;;8.57;100.00
29935;BME280;19905;53.370;-6.314;2023-04-06T01:00:07;100904.84;;;8.57;100.00
29935;BME280;19905;53.370;-6.314;2023-04-06T01:02:37;100909.06;;;8.59;100.00
29935;BME280;19905;53.370;-6.314;2023-04-06T01:05:06;100907.69;;;8.54;100.00
29935;BME280;19905;53.370;-6.314;2023-04-06T01:07:37;100900.91;;;8.50;100.00
29935;BME280;19905;53.370;-6.314;2023-04-06T01:10:07;100908.94;;;8.48;100.00
29935;BME280;19905;53.370;-6.314;2023-04-06T01:12:36;100910.78;;;8.46;100.00
29935;BME280;19905;53.370;-6.314;2023-04-06T01:15:09;100909.13;;;8.45;100.00
29935;BME280;19905;53.370;-6.314;2023-04-06T01:17:38;100921.44;;;8.45;100.00
29935;BME280;19905;53.370;-6.314;2023-04-06T01:20:07;100917.84;;;8.46;100.00
29935;BME280;19905;53.370;-6.314;2023-04-06T01:22:38;100920.03;;;8.39;100.00
29935;BME280;19905;53.370;-6.314;2023-04-06T01:25:09;100914.66;;;8.40;100.00
29935;BME280;19905;53.370;-6.314;2023-04-06T01:27:38;100903.50;;;8.37;100.00
29935;BME280;19905;53.370;-6.314;2023-04-06T01:30:07;100912.59;;;8.31;100.00
29935;BME280;19905;53.370;-6.314;2023-04-06T01:32:36;100911.56;;;8.34;100.00
29935;BME280;19905;53.370;-6.314;2023-04-06T01:35:05;100902.38;;;8.27;100.00
29935;BME280;19905;53.370;-6.314;2023-04-06T01:37:33;100898.59;;;8.31;100.00
29935;BME280;19905;53.370;-6.314;2023-04-06T01:40:08;100892.69;;;8.27;100.00
29935;BME280;19905;53.370;-6.314;2023-04-06T01:42:38;100895.41;;;8.26;100.00
29935;BME280;19905;53.370;-6.314;2023-04-06T01:45:07;100899.00;;;8.25;100.00
29935;BME280;19905;53.370;-6.314;2023-04-06T01:47:36;100894.56;;;8.25;100.00
29935;BME280;19905;53.370;-6.314;2023-04-06T01:50:06;100903.03;;;8.30;100.00
29935;BME280;19905;53.370;-6.314;2023-04-06T01:52:34;100894.16;;;8.31;100.00
29935;BME280;19905;53.370;-6.314;2023-04-06T01:55:04;100894.16;;;8.31;100.00
29935;BME280;19905;53.370;-6.314;2023-04-06T01:57:34;100892.69;;;8.27;100.00
29935;BME280;19905;53.370;-6.314;2023-04-06T02:00:02;100890.22;;;8.24;100.00
29935;BME280;19905;53.370;-6.314;2023-04-06T02:02:31;100883.69;;;8.17;100.00
29935;BME280;19905;53.370;-6.314;2023-04-06T02:05:01;100882.00;;;8.16;100.00
29935;BME280;19905;53.370;-6.314;2023-04-06T02:07:30;100889.78;;;8.18;100.00
29935;BME280;19905;53.370;-6.314;2023-04-06T02:10:00;100886.13;;;8.20;100.00
29935;BME280;19905;53.370;-6.314;2023-04-06T02:12:28;100886.13;;;8.20;100.00
29935;BME280;19905;53.370;-6.314;2023-04-06T02:14:59;100886.44;;;8.15;100.00
29935;BME280;19905;53.370;-6.314;2023-04-06T02:17:28;100888.28;;;8.13;100.00
29935;BME280;19905;53.370;-6.314;2023-04-06T02:19:56;100888.94;;;8.17;100.00
29935;BME280;19905;53.370;-6.314;2023-04-06T02:22:25;100887.56;;;8.11;100.00
29935;BME280;19905;53.370;-6.314;2023-04-06T02:24:54;100886.72;;;8.11;100.00
29935;BME280;19905;53.370;-6.314;2023-04-06T02:27:23;100890.47;;;8.07;100.00
29935;BME280;19905;53.370;-6.314;2023-04-06T02:29:51;100882.78;;;8.04;100.00
29935;BME280;19905;53.370;-6.314;2023-04-06T02:32:22;100889.72;;;8.05;100.00
29935;BME280;19905;53.370;-6.314;2023-04-06T02:34:51;100891.59;;;8.03;100.00
29935;BME280;19905;53.370;-6.314;2023-04-06T02:37:20;100883.78;;;8.01;100.00
29935;BME280;19905;53.370;-6.314;2023-04-06T02:39:48;100882.78;;;8.04;100.00
29935;BME280;19905;53.370;-6.314;2023-04-06T02:42:17;100894.31;;;8.01;100.00
29935;BME280;19905;53.370;-6.314;2023-04-06T02:44:46;100887.59;;;7.97;100.00
29935;BME280;19905;53.370;-6.314;2023-04-06T02:47:15;100883.25;;;7.96;100.00
29935;BME280;19905;53.370;-6.314;2023-04-06T02:49:45;100888.72;;;7.93;100.00
29935;BME280;19905;53.370;-6.314;2023-04-06T02:52:15;100889.44;;;7.95;100.00
29935;BME280;19905;53.370;-6.314;2023-04-06T02:54:44;100892.84;;;7.97;100.00
29935;BME280;19905;53.370;-6.314;2023-04-06T02:57:13;100892.84;;;7.97;100.00
29935;BME280;19905;53.370;-6.314;2023-04-06T02:59:42;100896.88;;;7.88;100.00
29935;BME280;19905;53.370;-6.314;2023-04-06T03:02:10;100887.88;;;7.93;100.00
29935;BME280;19905;53.370;-6.314;2023-04-06T03:04:39;100894.25;;;7.88;100.00
29935;BME280;19905;53.370;-6.314;2023-04-06T03:07:10;100896.34;;;7.83;100.00
29935;BME280;19905;53.370;-6.314;2023-04-06T03:09:39;100896.97;;;7.87;100.00
29935;BME280;19905;53.370;-6.314;2023-04-06T03:12:08;100891.06;;;7.83;100.00
29935;BME280;19905;53.370;-6.314;2023-04-06T03:14:36;100887.69;;;7.81;100.00
29935;BME280;19905;53.370;-6.314;2023-04-06T03:17:05;100898.09;;;7.83;100.00
29935;BME280;19905;53.370;-6.314;2023-04-06T03:19:34;100907.03;;;7.80;100.00
29935;BME280;19905;53.370;-6.314;2023-04-06T03:22:03;100906.38;;;7.77;100.00
29935;BME280;19905;53.370;-6.314;2023-04-06T03:24:33;100896.69;;;7.77;100.00
29935;BME280;19905;53.370;-6.314;2023-04-06T03:27:02;100899.31;;;7.77;100.00
29935;BME280;19905;53.370;-6.314;2023-04-06T03:29:30;100905.41;;;7.78;100.00
29935;BME280;19905;53.370;-6.314;2023-04-06T03:31:59;100905.53;;;7.76;100.00
29935;BME280;19905;53.370;-6.314;2023-04-06T03:34:28;100911.63;;;7.77;100.00
29935;BME280;19905;53.370;-6.314;2023-04-06T03:36:56;100911.81;;;7.74;100.00
29935;BME280;19905;53.370;-6.314;2023-04-06T03:39:38;100914.44;;;7.74;100.00
29935;BME280;19905;53.370;-6.314;2023-04-06T03:42:07;100910.69;;;7.78;100.00
29935;BME280;19905;53.370;-6.314;2023-04-06T03:44:37;100905.91;;;7.70;100.00
29935;BME280;19905;53.370;-6.314;2023-04-06T03:47:07;100911.34;;;7.67;100.00
29935;BME280;19905;53.370;-6.314;2023-04-06T03:49:36;100916.88;;;7.62;100.00
29935;BME280;19905;53.370;-6.314;2023-04-06T03:52:06;100922.16;;;7.62;100.00
29935;BME280;19905;53.370;-6.314;2023-04-06T03:54:34;100917.84;;;7.61;100.00
29935;BME280;19905;53.370;-6.314;2023-04-06T03:57:06;100919.03;;;7.56;100.00
29935;BME280;19905;53.370;-6.314;2023-04-06T03:59:34;100929.19;;;7.48;100.00
29935;BME280;19905;53.370;-6.314;2023-04-06T04:02:03;100929.53;;;7.42;100.00
29935;BME280;19905;53.370;-6.314;2023-04-06T04:04:32;100935.44;;;7.31;100.00
29935;BME280;19905;53.370;-6.314;2023-04-06T04:07:01;100938.50;;;7.23;100.00
29935;BME280;19905;53.370;-6.314;2023-04-06T04:09:29;100943.28;;;7.17;100.00
29935;BME280;19905;53.370;-6.314;2023-04-06T04:11:58;100937.53;;;7.10;100.00
29935;BME280;19905;53.370;-6.314;2023-04-06T04:14:28;100942.13;;;7.06;100.00
29935;BME280;19905;53.370;-6.314;2023-04-06T04:16:56;100937.16;;;7.02;100.00
29935;BME280;19905;53.370;-6.314;2023-04-06T04:19:25;100939.19;;;6.97;100.00
29935;BME280;19905;53.370;-6.314;2023-04-06T04:21:54;100932.31;;;6.94;100.00
29935;BME280;19905;53.370;-6.314;2023-04-06T04:24:22;100933.69;;;7.01;100.00
29935;BME280;19905;53.370;-6.314;2023-04-06T04:26:51;100932.53;;;7.05;100.00
29935;BME280;19905;53.370;-6.314;2023-04-06T04:29:20;100933.13;;;7.10;100.00
29935;BME280;19905;53.370;-6.314;2023-04-06T04:31:51;100938.19;;;7.13;100.00
29935;BME280;19905;53.370;-6.314;2023-04-06T04:34:20;100942.59;;;7.13;100.00
29935;BME280;19905;53.370;-6.314;2023-04-06T04:36:51;100943.66;;;7.10;100.00
29935;BME280;19905;53.370;-6.314;2023-04-06T04:39:20;100945.50;;;7.08;100.00
29935;BME280;19905;53.370;-6.314;2023-04-06T04:41:48;100949.66;;;7.12;100.00
29935;BME280;19905;53.370;-6.314;2023-04-06T04:44:17;100954.63;;;7.17;100.00
29935;BME280;19905;53.370;-6.314;2023-04-06T04:46:46;100962.34;;;7.20;100.00
29935;BME280;19905;53.370;-6.314;2023-04-06T04:49:16;100959.72;;;7.20;100.00
29935;BME280;19905;53.370;-6.314;2023-04-06T04:51:44;100956.16;;;7.21;100.00
29935;BME280;19905;53.370;-6.314;2023-04-06T04:54:13;100965.03;;;7.19;100.00
29935;BME280;19905;53.370;-6.314;2023-04-06T04:56:42;100959.97;;;7.16;100.00
29935;BME280;19905;53.370;-6.314;2023-04-06T04:59:10;100955.47;;;7.18;100.00
29935;BME280;19905;53.370;-6.314;2023-04-06T05:01:39;100964.19;;;7.18;100.00
29935;BME280;19905;53.370;-6.314;2023-04-06T05:04:22;100959.31;;;7.12;100.00
29935;BME280;19905;53.370;-6.314;2023-04-06T05:07:02;100956.84;;;7.09;100.00
29935;BME280;19905;53.370;-6.314;2023-04-06T05:09:31;100961.16;;;7.10;100.00
29935;BME280;19905;53.370;-6.314;2023-04-06T05:12:00;100963.13;;;7.06;100.00
29935;BME280;19905;53.370;-6.314;2023-04-06T05:14:29;100962.63;;;7.00;100.00
29935;BME280;19905;53.370;-6.314;2023-04-06T05:16:58;100978.59;;;6.97;100.00
29935;BME280;19905;53.370;-6.314;2023-04-06T05:19:29;100973.41;;;6.95;100.00
29935;BME280;19905;53.370;-6.314;2023-04-06T05:21:58;100983.06;;;6.95;100.00
29935;BME280;19905;53.370;-6.314;2023-04-06T05:24:27;100986.38;;;6.98;100.00
29935;BME280;19905;53.370;-6.314;2023-04-06T05:26:56;100987.31;;;6.97;100.00
29935;BME280;19905;53.370;-6.314;2023-04-06T05:29:24;100992.63;;;6.96;100.00
29935;BME280;19905;53.370;-6.314;2023-04-06T05:31:53;100989.41;;;6.91;100.00
29935;BME280;19905;53.370;-6.314;2023-04-06T05:34:22;100986.53;;;6.95;100.00
29935;BME280;19905;53.370;-6.314;2023-04-06T05:36:52;100998.06;;;6.93;100.00
29935;BME280;19905;53.370;-6.314;2023-04-06T05:39:21;100998.06;;;6.93;100.00
29935;BME280;19905;53.370;-6.314;2023-04-06T05:41:50;100990.25;;;6.91;100.00
29935;BME280;19905;53.370;-6.314;2023-04-06T05:44:19;100994.66;;;6.91;100.00
29935;BME280;19905;53.370;-6.314;2023-04-06T05:46:47;100999.06;;;6.90;100.00
29935;BME280;19905;53.370;-6.314;2023-04-06T05:49:16;101002.38;;;6.94;100.00
29935;BME280;19905;53.370;-6.314;2023-04-06T05:51:44;101000.13;;;6.87;100.00
29935;BME280;19905;53.370;-6.314;2023-04-06T05:54:14;101009.75;;;6.87;100.00
29935;BME280;19905;53.370;-6.314;2023-04-06T05:56:43;101011.63;;;6.85;100.00
29935;BME280;19905;53.370;-6.314;2023-04-06T05:59:11;101015.19;;;6.84;100.00
29935;BME280;19905;53.370;-6.314;2023-04-06T06:01:40;101023.22;;;6.81;100.00
29935;BME280;19905;53.370;-6.314;2023-04-06T06:04:11;101030.75;;;6.87;100.00
29935;BME280;19905;53.370;-6.314;2023-04-06T06:06:39;101037.03;;;6.84;100.00
29935;BME280;19905;53.370;-6.314;2023-04-06T06:09:08;101035.41;;;6.82;100.00
29935;BME280;19905;53.370;-6.314;2023-04-06T06:11:38;101038.22;;;6.79;100.00
29935;BME280;19905;53.370;-6.314;2023-04-06T06:14:08;101040.16;;;6.75;100.00
29935;BME280;19905;53.370;-6.314;2023-04-06T06:16:36;101046.09;;;6.79;100.00
29935;BME280;19905;53.370;-6.314;2023-04-06T06:19:05;101047.94;;;6.77;100.00
29935;BME280;19905;53.370;-6.314;2023-04-06T06:21:34;101048.03;;;6.75;100.00
29935;BME280;19905;53.370;-6.314;2023-04-06T06:24:03;101057.97;;;6.70;100.00
29935;BME280;19905;53.370;-6.314;2023-04-06T06:26:32;101057.97;;;6.70;100.00
29935;BME280;19905;53.370;-6.314;2023-04-06T06:29:04;101064.66;;;6.76;100.00
29935;BME280;19905;53.370;-6.314;2023-04-06T06:31:33;101067.38;;;6.74;100.00
29935;BME280;19905;53.370;-6.314;2023-04-06T06:34:02;101068.53;;;6.69;100.00
29935;BME280;19905;53.370;-6.314;2023-04-06T06:36:31;101073.88;;;6.67;100.00
29935;BME280;19905;53.370;-6.314;2023-04-06T06:38:59;101076.50;;;6.67;100.00
29935;BME280;19905;53.370;-6.314;2023-04-06T06:41:30;101073.19;;;6.63;100.00
29935;BME280;19905;53.370;-6.314;2023-04-06T06:43:59;101085.66;;;6.60;100.00
29935;BME280;19905;53.370;-6.314;2023-04-06T06:46:29;101071.59;;;6.61;100.00
29935;BME280;19905;53.370;-6.314;2023-04-06T06:48:58;101086.25;;;6.65;100.00
29935;BME280;19905;53.370;-6.314;2023-04-06T06:51:27;101080.16;;;6.65;100.00
29935;BME280;19905;53.370;-6.314;2023-04-06T06:53:56;101079.13;;;6.67;100.00
29935;BME280;19905;53.370;-6.314;2023-04-06T06:56:25;101083.03;;;6.76;100.00
29935;BME280;19905;53.370;-6.314;2023-04-06T06:58:55;101084.66;;;6.78;100.00
29935;BME280;19905;53.370;-6.314;2023-04-06T07:01:23;101093.13;;;6.83;100.00
29935;BME280;19905;53.370;-6.314;2023-04-06T07:03:54;101092.88;;;6.88;100.00
29935;BME280;19905;53.370;-6.314;2023-04-06T07:06:22;101104.81;;;6.94;100.00
29935;BME280;19905;53.370;-6.314;2023-04-06T07:08:51;101090.66;;;6.80;100.00
29935;BME280;19905;53.370;-6.314;2023-04-06T07:11:20;101095.56;;;6.86;100.00
29935;BME280;19905;53.370;-6.314;2023-04-06T07:13:48;101091.75;;;6.92;100.00
29935;BME280;19905;53.370;-6.314;2023-04-06T07:16:17;101106.66;;;6.92;100.00
29935;BME280;19905;53.370;-6.314;2023-04-06T07:18:46;101100.66;;;6.90;100.00
29935;BME280;19905;53.370;-6.314;2023-04-06T07:21:16;101101.84;;;6.84;100.00
29935;BME280;19905;53.370;-6.314;2023-04-06T07:23:44;101103.28;;;6.90;100.00
29935;BME280;19905;53.370;-6.314;2023-04-06T07:26:15;101102.59;;;6.86;100.00
29935;BME280;19905;53.370;-6.314;2023-04-06T07:28:43;101105.56;;;6.80;100.00
29935;BME280;19905;53.370;-6.314;2023-04-06T07:31:12;101106.75;;;6.74;100.00
29935;BME280;19905;53.370;-6.314;2023-04-06T07:33:40;101120.78;;;6.73;100.00
29935;BME280;19905;53.370;-6.314;2023-04-06T07:36:09;101120.88;;;6.72;100.00
29935;BME280;19905;53.370;-6.314;2023-04-06T07:38:40;101124.03;;;6.78;100.00
29935;BME280;19905;53.370;-6.314;2023-04-06T07:41:08;101128.00;;;6.85;100.00
29935;BME280;19905;53.370;-6.314;2023-04-06T07:43:37;101126.91;;;6.90;100.00
29935;BME280;19905;53.370;-6.314;2023-04-06T07:46:06;101133.09;;;6.88;100.00
29935;BME280;19905;53.370;-6.314;2023-04-06T07:48:35;101128.44;;;6.94;100.00
29935;BME280;19905;53.370;-6.314;2023-04-06T07:51:04;101125.56;;;6.98;100.00
29935;BME280;19905;53.370;-6.314;2023-04-06T07:53:33;101130.31;;;7.07;100.00
29935;BME280;19905;53.370;-6.314;2023-04-06T07:56:04;101133.69;;;7.09;100.00
29935;BME280;19905;53.370;-6.314;2023-04-06T07:58:32;101129.63;;;7.20;100.00
29935;BME280;19905;53.370;-6.314;2023-04-06T08:01:01;101140.13;;;7.35;100.00
29935;BME280;19905;53.370;-6.314;2023-04-06T08:03:30;101132.72;;;7.42;100.00
29935;BME280;19905;53.370;-6.314;2023-04-06T08:06:02;101136.56;;;7.36;100.00
29935;BME280;19905;53.370;-6.314;2023-04-06T08:08:32;101136.81;;;7.32;100.00
29935;BME280;19905;53.370;-6.314;2023-04-06T08:11:00;101134.88;;;7.35;100.00
29935;BME280;19905;53.370;-6.314;2023-04-06T08:13:32;101138.88;;;7.43;100.00
29935;BME280;19905;53.370;-6.314;2023-04-06T08:16:01;101145.97;;;7.56;100.00
29935;BME280;19905;53.370;-6.314;2023-04-06T08:18:29;101135.53;;;7.55;100.00
29935;BME280;19905;53.370;-6.314;2023-04-06T08:20:58;101146.28;;;7.66;100.00
29935;BME280;19905;53.370;-6.314;2023-04-06T08:23:26;101147.13;;;7.67;100.00
29935;BME280;19905;53.370;-6.314;2023-04-06T08:25:55;101142.72;;;7.67;100.00
29935;BME280;19905;53.370;-6.314;2023-04-06T08:28:24;101146.19;;;7.68;100.00
29935;BME280;19905;53.370;-6.314;2023-04-06T08:30:54;101153.03;;;7.86;100.00
29935;BME280;19905;53.370;-6.314;2023-04-06T08:33:22;101144.97;;;7.89;100.00
29935;BME280;19905;53.370;-6.314;2023-04-06T08:35:51;101146.22;;;7.98;100.00
29935;BME280;19905;53.370;-6.314;2023-04-06T08:38:20;101150.38;;;8.02;100.00
29935;BME280;19905;53.370;-6.314;2023-04-06T08:40:49;101140.97;;;8.12;100.00
29935;BME280;19905;53.370;-6.314;2023-04-06T08:43:20;101142.88;;;8.24;100.00
29935;BME280;19905;53.370;-6.314;2023-04-06T08:45:50;101147.78;;;8.30;100.00
29935;BME280;19905;53.370;-6.314;2023-04-06T08:48:21;101139.97;;;8.29;100.00
29935;BME280;19905;53.370;-6.314;2023-04-06T08:50:51;101146.13;;;8.44;100.00
29935;BME280;19905;53.370;-6.314;2023-04-06T08:53:20;101136.56;;;8.57;100.00
29935;BME280;19905;53.370;-6.314;2023-04-06T08:55:50;101142.09;;;8.67;100.00
29935;BME280;19905;53.370;-6.314;2023-04-06T08:58:19;101143.69;;;8.55;100.00
29935;BME280;19905;53.370;-6.314;2023-04-06T09:01:02;101129.28;;;8.46;100.00
29935;BME280;19905;53.370;-6.314;2023-04-06T09:03:38;101135.78;;;8.69;100.00
29935;BME280;19905;53.370;-6.314;2023-04-06T09:06:08;101139.47;;;8.67;100.00
29935;BME280;19905;53.370;-6.314;2023-04-06T09:08:39;101145.31;;;8.57;100.00
29935;BME280;19905;53.370;-6.314;2023-04-06T09:11:08;101140.22;;;8.54;100.00
29935;BME280;19905;53.370;-6.314;2023-04-06T09:13:47;101139.81;;;8.60;100.00
29935;BME280;19905;53.370;-6.314;2023-04-06T09:16:17;101145.66;;;8.65;100.00
29935;BME280;19905;53.370;-6.314;2023-04-06T09:18:49;101138.31;;;8.56;100.00
29935;BME280;19905;53.370;-6.314;2023-04-06T09:21:18;101137.47;;;8.56;100.00
29935;BME280;19905;53.370;-6.314;2023-04-06T09:23:58;101147.81;;;8.73;100.00
29935;BME280;19905;53.370;-6.314;2023-04-06T09:26:28;101145.41;;;8.84;100.00
29935;BME280;19905;53.370;-6.314;2023-04-06T09:28:57;101160.63;;;8.94;100.00
29935;BME280;19905;53.370;-6.314;2023-04-06T09:31:30;101162.41;;;9.07;100.00
29935;BME280;19905;53.370;-6.314;2023-04-06T09:34:02;101156.25;;;9.21;100.00
29935;BME280;19905;53.370;-6.314;2023-04-06T09:36:31;101160.59;;;9.08;100.00
29935;BME280;19905;53.370;-6.314;2023-04-06T09:39:02;101158.38;;;8.73;100.00
29935;BME280;19905;53.370;-6.314;2023-04-06T09:41:33;101157.06;;;8.66;100.00
29935;BME280;19905;53.370;-6.314;2023-04-06T09:44:03;101168.34;;;8.68;100.00
29935;BME280;19905;53.370;-6.314;2023-04-06T09:46:34;101163.53;;;8.75;100.00
29935;BME280;19905;53.370;-6.314;2023-04-06T09:49:24;101163.25;;;9.08;100.00
29935;BME280;19905;53.370;-6.314;2023-04-06T09:51:59;101147.66;;;9.32;100.00
29935;BME280;19905;53.370;-6.314;2023-04-06T09:54:28;101147.06;;;9.41;100.00
29935;BME280;19905;53.370;-6.314;2023-04-06T09:57:04;101144.53;;;9.25;100.00
29935;BME280;19905;53.370;-6.314;2023-04-06T09:59:44;101144.50;;;9.66;100.00
29935;BME280;19905;53.370;-6.314;2023-04-06T10:02:24;101141.13;;;10.04;100.00
29935;BME280;19905;53.370;-6.314;2023-04-06T10:05:02;101139.09;;;10.08;100.00
29935;BME280;19905;53.370;-6.314;2023-04-06T10:07:34;101136.41;;;9.70;100.00
29935;BME280;19905;53.370;-6.314;2023-04-06T10:10:15;101149.81;;;9.39;100.00
29935;BME280;19905;53.370;-6.314;2023-04-06T10:12:45;101140.13;;;9.53;100.00
29935;BME280;19905;53.370;-6.314;2023-04-06T10:15:16;101141.94;;;9.92;100.00
29935;BME280;19905;53.370;-6.314;2023-04-06T10:17:48;101143.47;;;9.69;100.00
29935;BME280;19905;53.370;-6.314;2023-04-06T10:20:25;101144.53;;;9.79;100.00
29935;BME280;19905;53.370;-6.314;2023-04-06T10:22:59;101142.78;;;10.32;100.00
29935;BME280;19905;53.370;-6.314;2023-04-06T10:25:31;101147.53;;;10.27;100.00
29935;BME280;19905;53.370;-6.314;2023-04-06T10:28:01;101142.47;;;9.97;100.00
29935;BME280;19905;53.370;-6.314;2023-04-06T10:30:29;101157.31;;;9.73;100.00
29935;BME280;19905;53.370;-6.314;2023-04-06T10:32:59;101147.50;;;9.75;100.00
29935;BME280;19905;53.370;-6.314;2023-04-06T10:35:38;101152.75;;;10.14;100.00
29935;BME280;19905;53.370;-6.314;2023-04-06T10:38:06;101152.53;;;10.05;100.00
29935;BME280;19905;53.370;-6.314;2023-04-06T10:40:36;101161.69;;;9.86;100.00
29935;BME280;19905;53.370;-6.314;2023-04-06T10:43:10;101164.38;;;9.72;100.00
29935;BME280;19905;53.370;-6.314;2023-04-06T10:45:40;101170.75;;;9.55;100.00
29935;BME280;19905;53.370;-6.314;2023-04-06T10:48:14;101166.44;;;10.34;100.00
29935;BME280;19905;53.370;-6.314;2023-04-06T10:50:47;101158.06;;;10.91;100.00
29935;BME280;19905;53.370;-6.314;2023-04-06T10:53:21;101169.66;;;11.51;100.00
29935;BME280;19905;53.370;-6.314;2023-04-06T10:55:52;101171.94;;;10.82;100.00
29935;BME280;19905;53.370;-6.314;2023-04-06T10:58:24;101169.41;;;10.42;100.00
29935;BME280;19905;53.370;-6.314;2023-04-06T11:00:54;101175.53;;;10.03;100.00
29935;BME280;19905;53.370;-6.314;2023-04-06T11:03:23;101166.56;;;10.05;100.00
29935;BME280;19905;53.370;-6.314;2023-04-06T11:05:53;101161.56;;;10.79;100.00
29935;BME280;19905;53.370;-6.314;2023-04-06T11:08:25;101171.84;;;11.20;100.00
29935;BME280;19905;53.370;-6.314;2023-04-06T11:11:04;101167.53;;;11.67;100.00
29935;BME280;19905;53.370;-6.314;2023-04-06T11:13:38;101162.88;;;11.23;100.00
29935;BME280;19905;53.370;-6.314;2023-04-06T11:16:11;101169.38;;;10.80;100.00
29935;BME280;19905;53.370;-6.314;2023-04-06T11:18:51;101173.63;;;10.57;100.00
29935;BME280;19905;53.370;-6.314;2023-04-06T11:21:33;101178.72;;;10.21;100.00
29935;BME280;19905;53.370;-6.314;2023-04-06T11:24:10;101178.97;;;10.94;100.00
29935;BME280;19905;53.370;-6.314;2023-04-06T11:26:41;101185.56;;;11.62;100.00
29935;BME280;19905;53.370;-6.314;2023-04-06T11:29:11;101171.56;;;11.97;100.00
29935;BME280;19905;53.370;-6.314;2023-04-06T11:31:41;101170.63;;;12.09;100.00
29935;BME280;19905;53.370;-6.314;2023-04-06T11:34:11;101175.81;;;11.62;100.00
29935;BME280;19905;53.370;-6.314;2023-04-06T11:36:43;101179.06;;;11.18;100.00
29935;BME280;19905;53.370;-6.314;2023-04-06T11:39:13;101189.97;;;11.01;100.00
29935;BME280;19905;53.370;-6.314;2023-04-06T11:41:47;101185.22;;;10.80;100.00
29935;BME280;19905;53.370;-6.314;2023-04-06T11:44:28;101184.63;;;10.64;100.00
29935;BME280;19905;53.370;-6.314;2023-04-06T11:46:58;101189.22;;;10.99;100.00
29935;BME280;19905;53.370;-6.314;2023-04-06T11:49:27;101180.72;;;11.56;100.00
29935;BME280;19905;53.370;-6.314;2023-04-06T11:51:59;101186.88;;;11.80;100.00
29935;BME280;19905;53.370;-6.314;2023-04-06T11:54:33;101187.75;;;12.16;100.00
29935;BME280;19905;53.370;-6.314;2023-04-06T11:57:03;101185.66;;;12.43;100.00
29935;BME280;19905;53.370;-6.314;2023-04-06T11:59:32;101185.56;;;12.67;100.00
29935;BME280;19905;53.370;-6.314;2023-04-06T12:02:02;101186.53;;;13.00;100.00
29935;BME280;19905;53.370;-6.314;2023-04-06T12:04:31;101188.00;;;12.82;100.00
29935;BME280;19905;53.370;-6.314;2023-04-06T12:07:03;101193.28;;;12.70;100.00
29935;BME280;19905;53.370;-6.314;2023-04-06T12:09:32;101189.72;;;12.25;100.00
29935;BME280;19905;53.370;-6.314;2023-04-06T12:12:01;101194.50;;;12.66;100.00
29935;BME280;19905;53.370;-6.314;2023-04-06T12:14:30;101186.41;;;12.57;100.00
29935;BME280;19905;53.370;-6.314;2023-04-06T12:16:59;101193.66;;;13.00;100.00
29935;BME280;19905;53.370;-6.314;2023-04-06T12:19:27;101187.03;;;13.28;100.00
29935;BME280;19905;53.370;-6.314;2023-04-06T12:21:57;101188.66;;;13.62;100.00
29935;BME280;19905;53.370;-6.314;2023-04-06T12:24:29;101185.22;;;13.28;100.00
29935;BME280;19905;53.370;-6.314;2023-04-06T12:26:57;101196.16;;;12.56;100.00
29935;BME280;19905;53.370;-6.314;2023-04-06T12:29:36;101189.53;;;12.62;100.00
29935;BME280;19905;53.370;-6.314;2023-04-06T12:32:05;101189.44;;;13.08;100.00
29935;BME280;19905;53.370;-6.314;2023-04-06T12:34:34;101195.81;;;13.28;100.00
29935;BME280;19905;53.370;-6.314;2023-04-06T12:37:02;101191.03;;;13.77;100.00
29935;BME280;19905;53.370;-6.314;2023-04-06T12:39:33;101179.03;;;13.93;100.00
29935;BME280;19905;53.370;-6.314;2023-04-06T12:42:02;101178.94;;;14.05;100.00
29935;BME280;19905;53.370;-6.314;2023-04-06T12:44:31;101176.38;;;14.14;100.00
29935;BME280;19905;53.370;-6.314;2023-04-06T12:47:00;101181.56;;;14.37;100.00
29935;BME280;19905;53.370;-6.314;2023-04-06T12:49:30;101181.00;;;14.54;100.00
29935;BME280;19905;53.370;-6.314;2023-04-06T12:51:58;101179.78;;;14.05;100.00